Time;durP1;ratioP1;P1;durP2;ratioP2;P2;SDS_P1;SDS_P2;PMS_P1;PMS_P2;Temp;Humidity;BMP_temperature;BMP_pressure;BME280_temperature;BME280_humidity;BME280_pressure;Samples;Min_cycle;Max_cycle;Signal;HPM_P1;HPM_P2
2024/02/19 00:00:47;;;;;;;19.20;13.80;;;8.00;99.90;;;;;;5015233;28;20262;-48
2024/02/19 00:03:14;;;;;;;18.93;13.27;;;8.00;99.90;;;;;;5012079;28;20204;-48
2024/02/19 00:05:42;;;;;;;18.30;13.10;;;8.00;99.90;;;;;;4983166;28;20227;-55
2024/02/19 00:08:08;;;;;;;18.40;12.80;;;8.00;99.90;;;;;;5004800;28;20204;-48
2024/02/19 00:10:35;;;;;;;16.63;12.33;;;8.00;99.90;;;;;;5005589;28;20208;-56
2024/02/19 00:13:04;;;;;;;17.63;12.10;;;8.00;99.90;;;;;;5010960;28;20712;-48
2024/02/19 00:15:31;;;;;;;16.33;12.23;;;8.00;99.90;;;;;;5003388;28;20291;-56
2024/02/19 00:17:58;;;;;;;15.93;11.70;;;8.00;99.90;;;;;;5009033;28;20231;-52
2024/02/19 00:20:25;;;;;;;14.73;11.43;;;8.00;99.90;;;;;;4993276;28;20195;-56
2024/02/19 00:22:52;;;;;;;15.90;12.00;;;8.00;99.90;;;;;;4999361;28;20285;-50
2024/02/19 00:25:19;;;;;;;13.67;10.70;;;8.00;99.90;;;;;;5018027;28;20219;-55
2024/02/19 00:27:46;;;;;;;18.10;11.83;;;8.00;99.90;;;;;;5005341;28;20188;-51
2024/02/19 00:30:14;;;;;;;14.40;11.27;;;8.00;99.90;;;;;;5004478;28;20216;-52
2024/02/19 00:32:41;;;;;;;12.97;10.10;;;7.90;99.90;;;;;;5010299;28;20192;-48
2024/02/19 00:35:08;;;;;;;13.67;10.67;;;7.90;99.90;;;;;;5004749;28;20207;-52
2024/02/19 00:37:35;;;;;;;15.63;11.03;;;7.90;99.90;;;;;;4991252;28;20200;-50
2024/02/19 00:40:04;;;;;;;14.27;10.07;;;7.90;99.90;;;;;;5007871;28;20285;-54
2024/02/19 00:42:31;;;;;;;13.43;9.60;;;8.00;99.90;;;;;;5016042;28;20622;-46
2024/02/19 00:44:58;;;;;;;12.13;9.17;;;7.90;99.90;;;;;;5010223;28;20780;-55
2024/02/19 00:47:26;;;;;;;14.13;11.30;;;7.90;99.90;;;;;;5016839;28;20200;-48
2024/02/19 00:49:53;;;;;;;12.30;9.20;;;7.90;99.90;;;;;;5017216;28;20698;-55
2024/02/19 00:52:19;;;;;;;15.27;8.77;;;7.90;99.90;;;;;;4987641;28;20223;-49
2024/02/19 00:54:46;;;;;;;11.60;8.20;;;7.80;99.90;;;;;;5006543;28;20204;-51
2024/02/19 00:57:13;;;;;;;10.17;7.20;;;7.80;99.90;;;;;;5019466;28;20698;-48
2024/02/19 00:59:40;;;;;;;9.93;7.97;;;7.80;99.90;;;;;;5016592;28;20851;-55
2024/02/19 01:02:07;;;;;;;8.13;6.37;;;7.80;99.90;;;;;;5009385;28;20801;-51
2024/02/19 01:04:36;;;;;;;5.40;4.63;;;7.80;99.90;;;;;;5018427;28;20283;-56
2024/02/19 01:07:03;;;;;;;5.97;5.40;;;7.80;99.90;;;;;;5021162;28;20212;-52
2024/02/19 01:09:30;;;;;;;5.63;5.13;;;7.70;99.90;;;;;;4988742;28;20269;-53
2024/02/19 01:11:56;;;;;;;4.87;4.47;;;7.70;99.90;;;;;;5021582;28;20245;-48
2024/02/19 01:14:23;;;;;;;4.10;3.73;;;7.70;99.90;;;;;;5024074;28;20196;-52
2024/02/19 01:16:50;;;;;;;4.73;4.33;;;7.60;99.90;;;;;;5012326;28;21242;-47
2024/02/19 01:19:17;;;;;;;3.13;2.93;;;7.60;99.90;;;;;;5015386;28;20629;-53
2024/02/19 01:21:45;;;;;;;2.30;2.10;;;7.60;99.90;;;;;;5019443;28;20179;-49
2024/02/19 01:24:12;;;;;;;2.40;2.13;;;7.50;99.90;;;;;;4994955;28;20227;-50
2024/02/19 01:26:40;;;;;;;0.90;0.90;;;7.40;99.90;;;;;;5011544;28;20207;-50
2024/02/19 01:29:07;;;;;;;1.60;1.50;;;7.30;99.90;;;;;;5023756;28;20204;-52
2024/02/19 01:31:34;;;;;;;1.87;1.40;;;7.40;99.90;;;;;;5013177;28;20239;-56
2024/02/19 01:34:04;;;;;;;3.23;1.83;;;7.30;99.90;;;;;;5022291;28;20208;-49
2024/02/19 01:36:30;;;;;;;1.77;1.33;;;7.20;99.90;;;;;;5017129;28;20266;-56
2024/02/19 01:38:59;;;;;;;2.13;1.97;;;7.20;99.90;;;;;;4993548;28;20275;-52
2024/02/19 01:41:25;;;;;;;1.97;1.30;;;7.10;99.90;;;;;;5013449;28;20204;-56
2024/02/19 01:43:53;;;;;;;2.03;1.80;;;7.10;99.90;;;;;;5021787;28;20505;-47
2024/02/19 01:46:20;;;;;;;2.17;1.97;;;7.00;99.90;;;;;;5022628;28;20230;-56
2024/02/19 01:48:46;;;;;;;4.20;2.50;;;7.00;99.90;;;;;;5012030;28;20196;-49
2024/02/19 01:51:16;;;;;;;2.53;1.70;;;6.90;99.90;;;;;;5022367;28;20247;-54
2024/02/19 01:53:44;;;;;;;1.97;1.40;;;6.90;99.90;;;;;;4989638;28;20297;-50
2024/02/19 01:56:13;;;;;;;2.70;2.10;;;6.90;99.90;;;;;;5015218;28;20223;-53
2024/02/19 01:58:40;;;;;;;2.80;2.00;;;6.80;99.90;;;;;;5019434;28;20265;-49
2024/02/19 02:01:06;;;;;;;3.07;2.00;;;6.80;99.90;;;;;;5022212;28;20192;-50
2024/02/19 02:03:35;;;;;;;4.20;1.57;;;6.70;99.90;;;;;;5013145;28;20196;-57
2024/02/19 02:06:03;;;;;;;2.77;1.93;;;6.70;99.90;;;;;;5023255;28;20220;-56
2024/02/19 02:08:30;;;;;;;1.47;1.37;;;6.80;99.90;;;;;;5020295;28;20192;-56
2024/02/19 02:10:57;;;;;;;2.60;2.10;;;6.70;99.90;;;;;;4995116;28;20796;-50
2024/02/19 02:13:25;;;;;;;2.67;2.00;;;6.70;99.90;;;;;;5014503;28;20745;-55
2024/02/19 02:15:52;;;;;;;3.13;1.80;;;6.70;99.90;;;;;;5018468;28;20277;-49
2024/02/19 02:18:19;;;;;;;2.97;1.93;;;6.70;99.90;;;;;;5019023;28;20196;-56
2024/02/19 02:20:46;;;;;;;1.80;1.70;;;6.70;99.90;;;;;;5008756;28;20200;-50
2024/02/19 02:23:14;;;;;;;1.80;1.70;;;6.70;99.90;;;;;;5018966;28;20200;-50
2024/02/19 02:25:41;;;;;;;1.47;1.40;;;6.60;99.90;;;;;;4989672;28;20228;-49
2024/02/19 02:28:10;;;;;;;2.23;2.03;;;6.60;99.90;;;;;;5015109;28;20283;-50
2024/02/19 02:30:36;;;;;;;3.03;2.10;;;6.60;99.90;;;;;;5013050;28;20893;-56
2024/02/19 02:33:04;;;;;;;4.50;2.80;;;6.60;99.90;;;;;;5019790;28;20208;-48
2024/02/19 02:35:30;;;;;;;4.27;2.53;;;6.60;99.90;;;;;;5011525;28;20235;-56
2024/02/19 02:37:59;;;;;;;4.50;2.90;;;6.60;99.90;;;;;;5009456;28;20211;-55
2024/02/19 02:40:26;;;;;;;3.20;2.83;;;6.60;99.90;;;;;;5022760;28;20548;-53
2024/02/19 02:42:53;;;;;;;3.80;2.60;;;6.60;99.90;;;;;;4983593;28;20207;-56
2024/02/19 02:45:21;;;;;;;3.40;2.63;;;6.60;99.90;;;;;;5018471;28;20227;-52
2024/02/19 02:47:48;;;;;;;4.33;3.10;;;6.60;99.90;;;;;;5018662;28;20204;-56
2024/02/19 02:50:15;;;;;;;7.13;3.23;;;6.60;99.90;;;;;;5008985;28;22528;-56
2024/02/19 02:52:42;;;;;;;5.63;2.70;;;6.60;99.90;;;;;;5021626;28;20188;-56
2024/02/19 02:55:09;;;;;;;4.80;2.77;;;6.60;99.90;;;;;;5014911;28;20200;-48
2024/02/19 02:57:36;;;;;;;3.93;3.50;;;6.60;99.90;;;;;;4994189;28;20240;-50
2024/02/19 03:00:03;;;;;;;5.13;2.37;;;6.60;99.90;;;;;;5000285;28;20326;-52
2024/02/19 03:02:33;;;;;;;4.37;2.93;;;6.60;99.90;;;;;;5019136;28;20212;-54
2024/02/19 03:05:00;;;;;;;6.00;3.07;;;6.60;99.90;;;;;;5016789;28;20376;-52
2024/02/19 03:07:27;;;;;;;2.80;2.60;;;6.60;99.90;;;;;;5007893;28;20219;-54
2024/02/19 03:09:54;;;;;;;5.17;2.67;;;6.60;99.90;;;;;;5016181;28;20952;-52
2024/02/19 03:12:21;;;;;;;6.13;2.80;;;6.60;99.90;;;;;;4992513;28;20239;-49
2024/02/19 03:14:48;;;;;;;5.70;2.73;;;6.60;99.90;;;;;;5008587;28;20790;-48
2024/02/19 03:17:15;;;;;;;2.77;2.23;;;6.60;99.90;;;;;;5017077;28;20219;-51
2024/02/19 03:19:44;;;;;;;4.57;2.63;;;6.60;99.90;;;;;;5015540;28;20274;-52
2024/02/19 03:22:11;;;;;;;4.30;2.43;;;6.60;99.90;;;;;;5008981;28;20207;-48
2024/02/19 03:24:38;;;;;;;2.90;2.37;;;6.70;99.90;;;;;;5016483;28;20647;-56
2024/02/19 03:27:05;;;;;;;3.63;2.40;;;6.60;99.90;;;;;;4988235;28;20762;-52
2024/02/19 03:29:31;;;;;;;6.60;2.03;;;6.60;99.90;;;;;;5008049;28;20208;-56
2024/02/19 03:31:58;;;;;;;6.77;2.77;;;6.70;99.90;;;;;;5016414;28;20236;-50
2024/02/19 03:34:25;;;;;;;4.40;1.93;;;6.70;99.90;;;;;;5016842;28;20193;-54
2024/02/19 03:36:54;;;;;;;6.63;2.10;;;6.70;99.90;;;;;;5015437;28;20250;-51
2024/02/19 03:39:21;;;;;;;4.33;1.80;;;6.60;99.90;;;;;;5013438;28;20670;-52
2024/02/19 03:41:49;;;;;;;1.77;1.60;;;6.70;99.90;;;;;;4991841;28;20236;-47
2024/02/19 03:44:16;;;;;;;5.10;1.40;;;6.60;99.90;;;;;;5010231;28;20200;-48
2024/02/19 03:46:43;;;;;;;4.10;1.50;;;6.70;99.90;;;;;;5017599;28;20211;-54
2024/02/19 03:49:11;;;;;;;2.77;1.70;;;6.60;99.90;;;;;;5018529;28;20204;-51
2024/02/19 03:51:38;;;;;;;3.47;1.30;;;6.70;99.90;;;;;;5016176;28;20329;-55
2024/02/19 03:54:06;;;;;;;1.43;1.33;;;6.70;99.90;;;;;;5010790;28;20212;-47
2024/02/19 03:56:32;;;;;;;4.13;1.73;;;6.70;99.90;;;;;;5017673;28;20270;-56
2024/02/19 03:58:59;;;;;;;4.97;1.50;;;6.70;99.90;;;;;;4991785;28;20813;-52
2024/02/19 04:01:26;;;;;;;3.13;1.73;;;6.70;99.90;;;;;;5009658;28;20219;-54
2024/02/19 04:03:53;;;;;;;7.23;1.90;;;6.70;99.90;;;;;;5016142;28;20267;-48
2024/02/19 04:06:20;;;;;;;3.20;1.40;;;6.70;99.90;;;;;;5016788;28;20247;-50
2024/02/19 04:08:47;;;;;;;3.33;1.53;;;6.60;99.90;;;;;;5004730;28;20269;-47
2024/02/19 04:11:17;;;;;;;4.60;1.77;;;6.60;99.90;;;;;;5019972;28;20220;-49
2024/02/19 04:13:42;;;;;;;4.87;1.40;;;6.60;99.90;;;;;;4985220;28;20650;-55
2024/02/19 04:16:10;;;;;;;4.70;1.40;;;6.60;99.90;;;;;;5012514;28;20238;-48
2024/02/19 04:18:36;;;;;;;4.43;1.13;;;6.60;99.90;;;;;;5017341;28;20213;-54
2024/02/19 04:21:03;;;;;;;3.70;1.20;;;6.60;99.90;;;;;;5015480;28;20265;-48
2024/02/19 04:23:30;;;;;;;3.47;1.50;;;6.50;99.90;;;;;;5011948;28;20228;-56
2024/02/19 04:25:57;;;;;;;2.57;1.00;;;6.50;99.90;;;;;;5011488;28;20219;-49
2024/02/19 04:28:25;;;;;;;2.13;0.97;;;6.50;99.90;;;;;;5015235;28;20227;-50
2024/02/19 04:30:52;;;;;;;3.63;1.00;;;6.40;99.90;;;;;;4991605;28;20211;-53
2024/02/19 04:33:19;;;;;;;5.80;0.93;;;6.40;99.90;;;;;;5006613;28;20274;-49
2024/02/19 04:35:45;;;;;;;3.60;1.13;;;6.40;99.90;;;;;;5019046;28;20272;-55
2024/02/19 04:38:12;;;;;;;3.90;1.13;;;6.40;99.90;;;;;;5011613;28;20455;-49
2024/02/19 04:40:39;;;;;;;1.93;0.77;;;6.30;99.90;;;;;;5009337;28;20243;-55
2024/02/19 04:43:06;;;;;;;0.50;0.50;;;6.40;99.90;;;;;;5012505;28;20256;-54
2024/02/19 04:45:35;;;;;;;2.40;0.60;;;6.40;99.90;;;;;;4993621;28;20599;-50
2024/02/19 04:48:02;;;;;;;2.73;0.50;;;6.30;99.90;;;;;;5009540;28;20211;-55
2024/02/19 04:50:29;;;;;;;1.20;0.90;;;6.30;99.90;;;;;;5014015;28;20294;-46
2024/02/19 04:52:56;;;;;;;4.20;0.70;;;6.30;99.90;;;;;;5004482;28;20227;-51
2024/02/19 04:55:23;;;;;;;2.70;0.60;;;6.30;99.90;;;;;;5009853;28;20228;-54
2024/02/19 04:57:50;;;;;;;2.10;0.50;;;6.30;99.90;;;;;;5019044;28;20915;-49
2024/02/19 05:00:17;;;;;;;0.83;0.47;;;6.30;99.90;;;;;;4990943;28;20670;-55
2024/02/19 05:02:45;;;;;;;0.60;0.40;;;6.30;99.90;;;;;;5008228;28;20184;-48
2024/02/19 05:05:12;;;;;;;1.77;0.50;;;6.30;99.90;;;;;;5016980;28;20195;-51
2024/02/19 05:07:39;;;;;;;1.43;0.43;;;6.30;99.90;;;;;;5006874;28;20204;-51
2024/02/19 05:10:07;;;;;;;2.03;0.70;;;6.30;99.90;;;;;;5015831;28;20599;-51
2024/02/19 05:12:34;;;;;;;2.33;0.40;;;6.30;99.90;;;;;;4997557;28;20220;-48
2024/02/19 05:15:02;;;;;;;1.07;0.30;;;6.30;99.90;;;;;;5017500;28;20278;-52
2024/02/19 05:17:29;;;;;;;1.50;0.60;;;6.30;99.90;;;;;;4989695;28;20266;-55
2024/02/19 05:19:57;;;;;;;1.50;0.50;;;6.30;99.90;;;;;;5015230;28;20200;-53
2024/02/19 05:22:24;;;;;;;0.47;0.30;;;6.30;99.90;;;;;;5015364;28;20651;-55
2024/02/19 05:24:51;;;;;;;1.67;0.40;;;6.30;99.90;;;;;;5006275;28;20222;-55
2024/02/19 05:27:19;;;;;;;1.17;0.27;;;6.30;99.90;;;;;;5004519;28;20212;-48
2024/02/19 05:29:46;;;;;;;0.63;0.20;;;6.20;99.90;;;;;;5009637;28;20681;-55
2024/02/19 05:32:13;;;;;;;0.20;0.20;;;6.30;99.90;;;;;;4989195;28;20266;-51
2024/02/19 05:34:39;;;;;;;0.40;0.20;;;6.20;99.90;;;;;;5013938;28;20252;-56
2024/02/19 05:37:08;;;;;;;0.27;0.10;;;6.20;99.90;;;;;;5014772;28;20296;-52
2024/02/19 05:39:34;;;;;;;0.57;0.10;;;6.20;99.90;;;;;;5015586;28;20205;-54
2024/02/19 05:42:01;;;;;;;1.40;0.63;;;6.20;99.90;;;;;;4999405;28;20964;-49
2024/02/19 05:44:29;;;;;;;0.30;0.20;;;6.20;99.90;;;;;;5013875;28;20261;-49
2024/02/19 05:46:56;;;;;;;1.37;0.20;;;6.20;99.90;;;;;;4987131;28;20227;-48
2024/02/19 05:49:22;;;;;;;1.13;0.13;;;6.20;99.90;;;;;;5016749;28;20250;-53
2024/02/19 05:51:49;;;;;;;0.20;0.20;;;6.20;99.90;;;;;;5014875;28;20744;-54
2024/02/19 05:54:17;;;;;;;0.10;0.10;;;6.20;99.90;;;;;;5018276;28;20254;-49
2024/02/19 05:56:44;;;;;;;0.50;0.30;;;6.20;99.90;;;;;;5007026;28;20254;-57
2024/02/19 05:59:11;;;;;;;0.37;0.37;;;6.20;99.90;;;;;;5013514;28;20306;-49
2024/02/19 06:01:38;;;;;;;1.20;0.57;;;6.20;99.90;;;;;;5018739;28;20192;-55
2024/02/19 06:04:05;;;;;;;1.23;0.40;;;6.20;99.90;;;;;;4986426;28;20204;-52
2024/02/19 06:06:32;;;;;;;0.50;0.50;;;6.20;99.90;;;;;;5021656;28;20220;-53
2024/02/19 06:08:59;;;;;;;1.40;0.83;;;6.20;99.90;;;;;;5021277;28;20196;-48
2024/02/19 06:11:27;;;;;;;0.80;0.80;;;6.10;99.90;;;;;;5011794;28;20219;-53
2024/02/19 06:13:54;;;;;;;2.03;0.90;;;6.20;99.90;;;;;;5010452;28;20298;-47
2024/02/19 06:16:21;;;;;;;1.33;1.03;;;6.10;99.90;;;;;;5015397;28;20227;-51
2024/02/19 06:18:48;;;;;;;1.60;1.50;;;6.20;99.90;;;;;;4982908;28;20342;-50
2024/02/19 06:21:15;;;;;;;1.93;1.70;;;6.20;99.90;;;;;;5017234;28;20200;-54
2024/02/19 06:23:41;;;;;;;1.83;1.73;;;6.20;99.90;;;;;;5005520;28;20207;-56
2024/02/19 06:26:11;;;;;;;2.40;2.20;;;6.20;99.90;;;;;;5003051;28;20223;-51
2024/02/19 06:28:40;;;;;;;5.90;2.23;;;6.20;99.90;;;;;;5008379;28;20227;-54
2024/02/19 06:31:06;;;;;;;3.37;3.00;;;6.20;99.90;;;;;;5007569;28;20873;-49
2024/02/19 06:33:33;;;;;;;4.33;2.80;;;6.20;99.90;;;;;;5022694;28;20199;-47
2024/02/19 06:36:00;;;;;;;2.70;2.37;;;6.30;99.90;;;;;;4992885;28;20239;-51
2024/02/19 06:38:27;;;;;;;3.57;2.00;;;6.30;99.90;;;;;;5020971;28;20201;-53
2024/02/19 06:40:55;;;;;;;4.23;2.07;;;6.30;99.90;;;;;;5005741;28;20238;-52
2024/02/19 06:43:22;;;;;;;1.90;1.27;;;6.30;99.90;;;;;;5013827;28;20246;-55
2024/02/19 06:45:52;;;;;;;3.83;1.13;;;6.30;99.90;;;;;;5001939;28;20289;-55
2024/02/19 06:48:19;;;;;;;1.20;1.03;;;6.30;99.90;;;;;;5017254;28;20600;-50
2024/02/19 06:50:46;;;;;;;1.13;0.73;;;6.30;99.90;;;;;;4985812;28;20215;-55
2024/02/19 06:53:13;;;;;;;1.00;0.77;;;6.30;99.90;;;;;;5012949;28;20403;-53
2024/02/19 06:55:40;;;;;;;0.90;0.90;;;6.30;99.90;;;;;;5013495;28;20217;-54
2024/02/19 06:58:07;;;;;;;1.33;1.23;;;6.30;99.90;;;;;;5003946;28;20670;-54
2024/02/19 07:00:34;;;;;;;6.13;2.83;;;6.40;99.90;;;;;;5006964;28;20192;-46
2024/02/19 07:03:03;;;;;;;2.13;1.93;;;6.40;99.90;;;;;;4988494;28;20255;-53
2024/02/19 07:05:29;;;;;;;2.33;1.83;;;6.40;99.90;;;;;;4994937;28;20408;-50
2024/02/19 07:07:57;;;;;;;2.60;2.00;;;6.40;99.90;;;;;;5000183;28;20219;-53
2024/02/19 07:10:23;;;;;;;3.07;2.50;;;6.40;99.90;;;;;;5011777;28;20201;-53
2024/02/19 07:12:50;;;;;;;3.53;2.70;;;6.40;99.90;;;;;;5001617;28;20259;-48
2024/02/19 07:15:17;;;;;;;3.77;2.80;;;6.40;99.90;;;;;;5002694;28;20216;-49
2024/02/19 07:17:44;;;;;;;3.70;2.87;;;6.40;99.90;;;;;;5007632;28;20891;-52
2024/02/19 07:20:13;;;;;;;4.10;2.60;;;6.50;99.90;;;;;;4989159;28;20204;-53
2024/02/19 07:22:40;;;;;;;3.13;2.67;;;6.50;99.90;;;;;;5008832;28;20201;-56
2024/02/19 07:25:08;;;;;;;3.07;2.70;;;6.50;99.90;;;;;;5023802;28;20204;-52
2024/02/19 07:27:34;;;;;;;4.17;2.40;;;6.50;99.90;;;;;;5009691;28;20205;-53
2024/02/19 07:30:04;;;;;;;2.73;2.30;;;6.50;99.90;;;;;;5010021;28;20738;-55
2024/02/19 07:32:31;;;;;;;4.03;2.40;;;6.60;99.90;;;;;;5004944;28;20217;-53
2024/02/19 07:34:58;;;;;;;2.80;2.60;;;6.60;99.90;;;;;;5017381;28;20724;-51
2024/02/19 07:37:26;;;;;;;2.57;2.13;;;6.60;99.90;;;;;;4992282;28;20200;-50
2024/02/19 07:39:53;;;;;;;3.00;2.30;;;6.70;99.90;;;;;;5013733;28;20235;-49
2024/02/19 07:42:20;;;;;;;2.50;2.27;;;6.70;99.90;;;;;;5007487;28;20258;-53
2024/02/19 07:44:47;;;;;;;5.30;2.20;;;6.80;99.90;;;;;;5015531;28;20195;-50
2024/02/19 07:47:16;;;;;;;2.53;2.33;;;6.80;99.90;;;;;;4996692;28;20278;-53
2024/02/19 07:49:43;;;;;;;3.03;2.40;;;6.80;99.90;;;;;;5018607;28;20199;-52
2024/02/19 07:52:09;;;;;;;5.67;2.63;;;6.80;99.90;;;;;;4987848;28;20224;-52
2024/02/19 07:54:38;;;;;;;3.80;2.10;;;6.90;99.90;;;;;;5009644;28;20263;-50
2024/02/19 07:57:06;;;;;;;6.10;2.60;;;6.90;99.90;;;;;;5017062;28;20307;-53
2024/02/19 07:59:33;;;;;;;4.03;2.60;;;6.90;99.90;;;;;;5002110;28;20867;-52
2024/02/19 08:02:00;;;;;;;2.70;2.43;;;7.00;99.90;;;;;;5011868;28;20266;-50
2024/02/19 08:04:27;;;;;;;4.23;2.90;;;7.00;99.90;;;;;;5004612;28;20216;-53
2024/02/19 08:06:54;;;;;;;3.50;1.90;;;7.00;99.90;;;;;;4986206;28;21124;-47
2024/02/19 08:09:22;;;;;;;3.73;2.43;;;7.10;99.90;;;;;;5020826;28;20215;-52
2024/02/19 08:11:51;;;;;;;3.20;2.10;;;7.10;99.90;;;;;;5009022;28;21025;-50
2024/02/19 08:14:18;;;;;;;3.43;1.60;;;7.10;99.90;;;;;;5017278;28;20207;-52
2024/02/19 08:16:48;;;;;;;2.60;1.77;;;7.10;99.90;;;;;;4992740;28;20231;-47
2024/02/19 08:19:15;;;;;;;1.60;1.50;;;7.10;99.90;;;;;;5012276;28;20266;-53
2024/02/19 08:21:42;;;;;;;2.53;1.10;;;7.20;99.90;;;;;;5008859;28;20208;-52
2024/02/19 08:24:09;;;;;;;5.43;1.60;;;7.20;99.90;;;;;;4985134;28;20208;-49
2024/02/19 08:26:36;;;;;;;3.10;1.60;;;7.20;99.90;;;;;;5004888;28;20875;-49
2024/02/19 08:29:05;;;;;;;2.77;1.37;;;7.30;99.90;;;;;;5016369;28;20227;-52
2024/02/19 08:31:32;;;;;;;3.03;0.60;;;7.30;99.90;;;;;;5000528;28;20208;-49
2024/02/19 08:33:59;;;;;;;1.63;0.80;;;7.30;99.90;;;;;;5016630;28;20207;-49
2024/02/19 08:36:26;;;;;;;1.50;1.00;;;7.30;99.90;;;;;;5008377;28;20220;-49
2024/02/19 08:38:54;;;;;;;1.20;1.10;;;7.40;99.90;;;;;;4994913;28;20235;-46
2024/02/19 08:41:21;;;;;;;3.27;1.40;;;7.40;99.90;;;;;;5009269;28;20215;-48
2024/02/19 08:43:47;;;;;;;4.60;1.90;;;7.40;99.90;;;;;;5010145;28;20197;-47
2024/02/19 08:46:17;;;;;;;4.50;1.57;;;7.40;99.90;;;;;;5006622;28;20270;-53
2024/02/19 08:48:43;;;;;;;2.00;1.37;;;7.50;99.90;;;;;;5012404;28;20702;-49
2024/02/19 08:51:10;;;;;;;4.80;1.63;;;7.50;99.90;;;;;;5008101;28;20227;-53
2024/02/19 08:53:37;;;;;;;4.53;1.40;;;7.50;99.90;;;;;;5016871;28;20215;-48
2024/02/19 08:56:05;;;;;;;6.43;1.53;;;7.50;99.90;;;;;;4993936;28;20311;-51
2024/02/19 08:58:33;;;;;;;5.77;2.00;;;7.60;99.90;;;;;;5005107;28;20929;-46
2024/02/19 09:01:01;;;;;;;7.37;1.63;;;7.60;99.90;;;;;;5017755;28;20200;-51
2024/02/19 09:03:29;;;;;;;8.87;1.70;;;7.70;99.90;;;;;;5010444;28;20283;-48
2024/02/19 09:05:56;;;;;;;4.73;1.70;;;7.70;99.90;;;;;;5005160;28;20219;-46
2024/02/19 09:08:23;;;;;;;8.93;2.33;;;7.70;99.90;;;;;;5013037;28;20209;-47
2024/02/19 09:10:49;;;;;;;4.30;1.70;;;7.70;99.90;;;;;;4988223;28;20200;-47
2024/02/19 09:13:16;;;;;;;7.00;1.93;;;7.80;99.90;;;;;;5006805;28;20212;-48
2024/02/19 09:15:44;;;;;;;9.27;1.93;;;7.80;99.90;;;;;;5015860;28;20346;-51
2024/02/19 09:18:11;;;;;;;7.70;2.00;;;7.80;99.90;;;;;;5005176;28;20208;-46
2024/02/19 09:20:40;;;;;;;7.37;2.23;;;7.80;99.90;;;;;;5013601;28;20191;-53
2024/02/19 09:23:06;;;;;;;8.27;2.30;;;7.90;99.90;;;;;;5008076;28;20569;-45
2024/02/19 09:25:33;;;;;;;7.63;2.60;;;7.90;99.90;;;;;;5001805;28;20226;-53
2024/02/19 09:28:00;;;;;;;5.70;2.00;;;7.90;99.90;;;;;;4997723;28;20937;-51
2024/02/19 09:30:27;;;;;;;6.90;2.03;;;8.00;99.90;;;;;;5023009;28;20574;-51
2024/02/19 09:32:54;;;;;;;6.57;2.40;;;7.90;99.90;;;;;;5009972;28;20943;-50
2024/02/19 09:35:21;;;;;;;7.77;2.10;;;8.00;99.90;;;;;;5018204;28;20772;-46
2024/02/19 09:37:50;;;;;;;5.90;2.27;;;8.00;99.90;;;;;;5009331;28;20192;-50
2024/02/19 09:40:19;;;;;;;4.70;2.00;;;8.00;99.90;;;;;;5024059;28;20250;-50
2024/02/19 09:42:47;;;;;;;5.00;2.30;;;8.00;99.90;;;;;;4990493;28;20233;-48
2024/02/19 09:45:14;;;;;;;5.50;2.27;;;8.00;99.90;;;;;;5012659;28;20210;-45
2024/02/19 09:47:45;;;;;;;8.70;2.53;;;8.00;99.90;;;;;;5003954;28;20276;-53
2024/02/19 09:50:14;;;;;;;5.23;3.10;;;8.00;99.90;;;;;;5024311;28;20612;-51
2024/02/19 09:52:44;;;;;;;7.07;3.30;;;8.00;99.90;;;;;;5009926;28;20242;-53
2024/02/19 09:55:12;;;;;;;6.77;3.10;;;8.00;99.90;;;;;;5022325;28;20204;-51
2024/02/19 09:57:40;;;;;;;9.90;3.30;;;8.10;99.90;;;;;;4992368;28;20682;-50
2024/02/19 10:00:09;;;;;;;11.17;3.90;;;8.10;99.90;;;;;;5014742;28;20261;-50
2024/02/19 10:02:38;;;;;;;7.67;3.90;;;8.10;99.90;;;;;;5016548;28;20254;-52
2024/02/19 10:05:07;;;;;;;12.67;3.87;;;8.20;99.90;;;;;;5012025;28;20203;-46
2024/02/19 10:07:34;;;;;;;15.07;4.47;;;8.10;99.90;;;;;;4999784;28;20591;-54
2024/02/19 10:10:03;;;;;;;11.20;4.00;;;8.20;99.90;;;;;;5016656;28;20266;-47
2024/02/19 10:12:31;;;;;;;12.30;3.67;;;8.20;99.90;;;;;;4989839;28;20330;-45
2024/02/19 10:14:57;;;;;;;17.13;4.67;;;8.20;99.90;;;;;;5014122;28;20204;-50
2024/02/19 10:17:26;;;;;;;13.60;4.70;;;8.30;99.90;;;;;;5017106;28;20290;-46
2024/02/19 10:20:00;;;;;;;13.80;4.03;;;8.30;99.90;;;;;;5006091;28;20216;-49
2024/02/19 10:22:27;;;;;;;10.93;3.20;;;8.40;99.90;;;;;;5022616;28;20187;-51
2024/02/19 10:24:54;;;;;;;10.13;3.70;;;8.40;99.90;;;;;;5012728;28;20208;-53
2024/02/19 10:27:21;;;;;;;12.17;3.40;;;8.50;99.90;;;;;;4991516;28;20224;-49
2024/02/19 10:29:49;;;;;;;12.63;3.20;;;8.50;99.90;;;;;;5015255;28;20606;-48
2024/02/19 10:32:16;;;;;;;15.40;4.27;;;8.60;99.90;;;;;;5010502;28;20370;-46
2024/02/19 10:34:43;;;;;;;11.80;3.63;;;8.60;99.90;;;;;;5012996;28;20200;-47
2024/02/19 10:37:10;;;;;;;10.23;3.63;;;8.60;99.90;;;;;;5011640;28;20219;-51
2024/02/19 10:39:37;;;;;;;9.47;3.23;;;8.70;99.90;;;;;;5016889;28;20215;-48
2024/02/19 10:42:05;;;;;;;16.87;3.10;;;8.80;99.90;;;;;;4994776;28;20203;-53
2024/02/19 10:44:34;;;;;;;5.23;2.03;;;8.80;99.90;;;;;;5010642;28;20855;-49
2024/02/19 10:47:03;;;;;;;5.47;1.97;;;8.80;99.90;;;;;;5014039;28;20230;-53
2024/02/19 10:49:30;;;;;;;7.60;2.77;;;8.80;99.90;;;;;;5015458;28;20266;-48
2024/02/19 10:51:58;;;;;;;1.67;1.40;;;8.80;99.90;;;;;;5009638;28;20274;-55
2024/02/19 10:54:27;;;;;;;5.23;1.80;;;8.80;99.90;;;;;;5010816;28;20248;-50
2024/02/19 10:57:06;;;;;;;4.57;1.90;;;8.90;99.90;;;;;;5015944;28;20596;-54
2024/02/19 10:59:32;;;;;;;4.00;0.90;;;9.00;99.90;;;;;;4982526;28;20215;-52
2024/02/19 11:02:09;;;;;;;3.70;1.20;;;8.90;99.90;;;;;;5008528;28;20231;-50
2024/02/19 11:04:36;;;;;;;2.30;0.77;;;9.00;99.90;;;;;;5018948;28;20192;-48
2024/02/19 11:07:04;;;;;;;2.43;0.70;;;9.00;99.90;;;;;;5014120;28;20759;-50
2024/02/19 11:09:34;;;;;;;3.60;1.03;;;9.00;99.90;;;;;;5017491;28;20227;-48
2024/02/19 11:12:02;;;;;;;2.47;0.67;;;8.90;99.90;;;;;;5012454;28;20220;-47
2024/02/19 11:14:30;;;;;;;7.17;1.77;;;8.90;99.90;;;;;;4995440;28;20211;-51
2024/02/19 11:16:58;;;;;;;10.73;1.97;;;8.90;99.90;;;;;;5018335;28;20714;-47
2024/02/19 11:19:26;;;;;;;6.10;1.77;;;8.90;99.90;;;;;;5011631;28;20587;-52
2024/02/19 11:22:02;;;;;;;10.97;1.67;;;8.80;99.90;;;;;;5010141;28;20204;-47
2024/02/19 11:24:31;;;;;;;18.40;3.60;;;8.90;99.90;;;;;;5002893;28;20193;-47
2024/02/19 11:26:58;;;;;;;18.07;3.50;;;8.90;99.90;;;;;;5008211;28;20220;-48
2024/02/19 11:29:25;;;;;;;14.50;3.63;;;8.80;99.90;;;;;;4995132;28;20212;-46
2024/02/19 11:31:59;;;;;;;7.67;2.33;;;8.80;99.90;;;;;;5012562;28;20270;-55
2024/02/19 11:34:28;;;;;;;14.00;3.13;;;8.90;99.90;;;;;;5009341;28;20224;-52
2024/02/19 11:37:02;;;;;;;9.07;3.27;;;8.90;99.90;;;;;;5007422;28;20921;-46
2024/02/19 11:39:29;;;;;;;9.70;2.73;;;9.00;99.90;;;;;;5013833;28;20218;-47
2024/02/19 11:41:56;;;;;;;9.03;2.53;;;9.10;99.90;;;;;;5008945;28;20211;-45
2024/02/19 11:44:23;;;;;;;11.10;3.33;;;9.10;99.90;;;;;;5016825;28;20597;-46
2024/02/19 11:46:51;;;;;;;8.73;3.13;;;9.20;99.90;;;;;;4993551;28;20277;-53
2024/02/19 11:49:19;;;;;;;11.63;3.00;;;9.30;99.90;;;;;;5010084;28;20207;-47
2024/02/19 11:51:48;;;;;;;16.77;3.83;;;9.30;99.90;;;;;;5015587;28;20602;-54
2024/02/19 11:54:16;;;;;;;18.80;3.37;;;9.40;99.90;;;;;;5022817;28;20301;-50
2024/02/19 11:56:44;;;;;;;19.83;4.20;;;9.40;99.90;;;;;;5016315;28;20227;-55
2024/02/19 11:59:11;;;;;;;13.27;3.17;;;9.40;99.90;;;;;;5010900;28;21158;-49
2024/02/19 12:01:38;;;;;;;14.90;3.67;;;9.40;99.90;;;;;;4992494;28;20212;-52
2024/02/19 12:04:05;;;;;;;15.37;3.60;;;9.40;99.90;;;;;;5009551;28;20204;-48
2024/02/19 12:06:36;;;;;;;11.20;3.23;;;9.40;99.90;;;;;;5021302;28;20223;-46
2024/02/19 12:09:04;;;;;;;9.87;3.40;;;9.40;99.90;;;;;;5010313;28;20196;-51
2024/02/19 12:11:32;;;;;;;15.27;3.23;;;9.30;99.90;;;;;;5018012;28;20196;-50
2024/02/19 12:13:59;;;;;;;15.73;2.83;;;9.40;99.90;;;;;;5008973;28;20220;-53
2024/02/19 12:16:28;;;;;;;13.30;3.07;;;9.30;99.90;;;;;;4993136;28;20227;-46
2024/02/19 12:18:55;;;;;;;15.47;3.40;;;9.40;99.90;;;;;;5013044;28;20978;-46
2024/02/19 12:21:23;;;;;;;12.77;3.00;;;9.40;99.90;;;;;;5011048;28;20231;-49
2024/02/19 12:23:52;;;;;;;15.93;3.13;;;9.30;99.90;;;;;;5008418;28;20203;-54
2024/02/19 12:26:21;;;;;;;14.17;3.30;;;9.30;99.90;;;;;;5014158;28;20231;-47
2024/02/19 12:28:48;;;;;;;10.03;3.20;;;9.40;99.90;;;;;;5006995;28;20193;-58
2024/02/19 12:31:15;;;;;;;13.93;4.03;;;9.30;99.90;;;;;;5009045;28;20207;-50
2024/02/19 12:33:42;;;;;;;14.80;3.50;;;9.30;99.90;;;;;;4988110;28;20216;-54
2024/02/19 12:36:11;;;;;;;17.00;3.20;;;9.30;99.90;;;;;;5004717;28;20289;-51
2024/02/19 12:38:41;;;;;;;8.13;3.10;;;9.30;99.90;;;;;;5006888;28;20290;-54
2024/02/19 12:41:09;;;;;;;12.20;3.77;;;9.20;99.90;;;;;;5014635;28;20267;-48
2024/02/19 12:43:38;;;;;;;10.70;3.33;;;9.20;99.90;;;;;;5004378;28;20254;-56
2024/02/19 12:46:06;;;;;;;10.97;4.27;;;9.20;99.90;;;;;;5010410;28;20335;-48
2024/02/19 12:48:34;;;;;;;11.97;3.17;;;9.30;99.90;;;;;;4981460;28;20220;-46
2024/02/19 12:51:02;;;;;;;12.07;4.00;;;9.30;99.90;;;;;;5001191;28;20230;-55
2024/02/19 12:53:29;;;;;;;11.70;2.90;;;9.30;99.90;;;;;;5006023;28;20219;-47
2024/02/19 12:55:56;;;;;;;5.50;3.03;;;9.30;99.90;;;;;;5017392;28;20231;-56